sensor_id;sensor_type;location;lat;lon;timestamp;P1;durP1;ratioP1;P2;durP2;ratioP2
35540;SDS011;21650;48.840;9.162;2022-08-21T00:02:26;3.90;;;2.10;;
35540;SDS011;21650;48.840;9.162;2022-08-21T00:04:53;2.57;;;1.70;;
35540;SDS011;21650;48.840;9.162;2022-08-21T00:07:19;3.30;;;1.77;;
35540;SDS011;21650;48.840;9.162;2022-08-21T00:09:45;3.87;;;2.60;;
35540;SDS011;21650;48.840;9.162;2022-08-21T00:12:11;4.03;;;2.23;;
35540;SDS011;21650;48.840;9.162;2022-08-21T00:14:36;5.97;;;2.07;;
35540;SDS011;21650;48.840;9.162;2022-08-21T00:17:02;3.83;;;2.60;;
35540;SDS011;21650;48.840;9.162;2022-08-21T00:19:30;5.10;;;2.57;;
35540;SDS011;21650;48.840;9.162;2022-08-21T00:21:56;5.13;;;2.80;;
35540;SDS011;21650;48.840;9.162;2022-08-21T00:24:22;4.40;;;2.33;;
35540;SDS011;21650;48.840;9.162;2022-08-21T00:26:49;6.37;;;2.47;;
35540;SDS011;21650;48.840;9.162;2022-08-21T00:29:15;4.57;;;2.30;;
35540;SDS011;21650;48.840;9.162;2022-08-21T00:31:41;6.80;;;3.13;;
35540;SDS011;21650;48.840;9.162;2022-08-21T00:34:08;5.30;;;2.43;;
35540;SDS011;21650;48.840;9.162;2022-08-21T00:36:34;3.27;;;2.60;;
35540;SDS011;21650;48.840;9.162;2022-08-21T00:39:00;5.87;;;2.83;;
35540;SDS011;21650;48.840;9.162;2022-08-21T00:41:26;5.83;;;2.70;;
35540;SDS011;21650;48.840;9.162;2022-08-21T00:43:53;4.40;;;2.63;;
35540;SDS011;21650;48.840;9.162;2022-08-21T00:46:19;5.20;;;2.73;;
35540;SDS011;21650;48.840;9.162;2022-08-21T00:48:45;4.30;;;2.50;;
35540;SDS011;21650;48.840;9.162;2022-08-21T00:51:13;8.50;;;2.30;;
35540;SDS011;21650;48.840;9.162;2022-08-21T00:53:47;3.87;;;2.27;;
35540;SDS011;21650;48.840;9.162;2022-08-21T00:56:14;3.20;;;1.97;;
35540;SDS011;21650;48.840;9.162;2022-08-21T00:58:40;3.97;;;2.03;;
35540;SDS011;21650;48.840;9.162;2022-08-21T01:01:08;6.07;;;2.20;;
35540;SDS011;21650;48.840;9.162;2022-08-21T01:03:34;2.97;;;2.07;;
35540;SDS011;21650;48.840;9.162;2022-08-21T01:06:00;4.90;;;2.47;;
35540;SDS011;21650;48.840;9.162;2022-08-21T01:08:29;3.57;;;2.40;;
35540;SDS011;21650;48.840;9.162;2022-08-21T01:10:55;6.47;;;2.50;;
35540;SDS011;21650;48.840;9.162;2022-08-21T01:13:21;5.73;;;2.50;;
35540;SDS011;21650;48.840;9.162;2022-08-21T01:15:49;4.63;;;2.23;;
35540;SDS011;21650;48.840;9.162;2022-08-21T01:18:17;2.80;;;2.00;;
35540;SDS011;21650;48.840;9.162;2022-08-21T01:20:51;5.37;;;2.10;;
35540;SDS011;21650;48.840;9.162;2022-08-21T01:23:31;3.87;;;2.30;;
35540;SDS011;21650;48.840;9.162;2022-08-21T01:25:56;2.73;;;2.13;;
35540;SDS011;21650;48.840;9.162;2022-08-21T01:28:22;7.77;;;2.70;;
35540;SDS011;21650;48.840;9.162;2022-08-21T01:30:49;3.83;;;2.20;;
35540;SDS011;21650;48.840;9.162;2022-08-21T01:33:17;4.10;;;1.97;;
35540;SDS011;21650;48.840;9.162;2022-08-21T01:35:44;3.97;;;2.23;;
35540;SDS011;21650;48.840;9.162;2022-08-21T01:38:10;6.50;;;2.57;;
35540;SDS011;21650;48.840;9.162;2022-08-21T01:40:35;3.17;;;2.53;;
35540;SDS011;21650;48.840;9.162;2022-08-21T01:43:02;7.77;;;2.93;;
35540;SDS011;21650;48.840;9.162;2022-08-21T01:45:27;3.80;;;2.33;;
35540;SDS011;21650;48.840;9.162;2022-08-21T01:47:55;3.67;;;2.00;;
35540;SDS011;21650;48.840;9.162;2022-08-21T01:50:20;5.30;;;2.67;;
35540;SDS011;21650;48.840;9.162;2022-08-21T01:52:47;3.17;;;2.00;;
35540;SDS011;21650;48.840;9.162;2022-08-21T01:55:14;2.23;;;1.90;;
35540;SDS011;21650;48.840;9.162;2022-08-21T01:57:41;2.47;;;1.90;;
35540;SDS011;21650;48.840;9.162;2022-08-21T02:00:08;2.73;;;1.97;;
35540;SDS011;21650;48.840;9.162;2022-08-21T02:02:36;3.07;;;2.20;;
35540;SDS011;21650;48.840;9.162;2022-08-21T02:05:03;3.90;;;2.50;;
35540;SDS011;21650;48.840;9.162;2022-08-21T02:07:39;3.07;;;2.27;;
35540;SDS011;21650;48.840;9.162;2022-08-21T02:10:09;6.73;;;2.40;;
35540;SDS011;21650;48.840;9.162;2022-08-21T02:12:36;7.70;;;3.37;;
35540;SDS011;21650;48.840;9.162;2022-08-21T02:15:03;4.63;;;2.10;;
35540;SDS011;21650;48.840;9.162;2022-08-21T02:20:09;5.40;;;2.30;;
35540;SDS011;21650;48.840;9.162;2022-08-21T02:22:39;6.53;;;1.93;;
35540;SDS011;21650;48.840;9.162;2022-08-21T02:25:05;4.00;;;2.27;;
35540;SDS011;21650;48.840;9.162;2022-08-21T02:27:36;3.13;;;2.30;;
35540;SDS011;21650;48.840;9.162;2022-08-21T02:30:07;4.30;;;2.50;;
35540;SDS011;21650;48.840;9.162;2022-08-21T02:32:36;3.50;;;1.97;;
35540;SDS011;21650;48.840;9.162;2022-08-21T02:35:02;5.00;;;2.40;;
35540;SDS011;21650;48.840;9.162;2022-08-21T02:37:28;5.93;;;2.70;;
35540;SDS011;21650;48.840;9.162;2022-08-21T02:39:53;5.80;;;2.67;;
35540;SDS011;21650;48.840;9.162;2022-08-21T02:42:19;4.43;;;2.43;;
35540;SDS011;21650;48.840;9.162;2022-08-21T02:44:45;3.70;;;2.50;;
35540;SDS011;21650;48.840;9.162;2022-08-21T02:47:10;3.03;;;2.40;;
35540;SDS011;21650;48.840;9.162;2022-08-21T02:49:36;4.53;;;2.53;;
35540;SDS011;21650;48.840;9.162;2022-08-21T02:52:02;3.63;;;2.30;;
35540;SDS011;21650;48.840;9.162;2022-08-21T02:54:27;4.43;;;2.73;;
35540;SDS011;21650;48.840;9.162;2022-08-21T02:56:53;3.33;;;3.03;;
35540;SDS011;21650;48.840;9.162;2022-08-21T02:59:19;3.63;;;2.63;;
35540;SDS011;21650;48.840;9.162;2022-08-21T03:01:44;6.43;;;2.77;;
35540;SDS011;21650;48.840;9.162;2022-08-21T03:04:10;4.30;;;2.73;;
35540;SDS011;21650;48.840;9.162;2022-08-21T03:06:35;7.03;;;4.13;;
35540;SDS011;21650;48.840;9.162;2022-08-21T03:09:02;3.63;;;2.33;;
35540;SDS011;21650;48.840;9.162;2022-08-21T03:11:27;3.47;;;2.43;;
35540;SDS011;21650;48.840;9.162;2022-08-21T03:13:53;4.67;;;3.00;;
35540;SDS011;21650;48.840;9.162;2022-08-21T03:16:19;4.10;;;2.73;;
35540;SDS011;21650;48.840;9.162;2022-08-21T03:18:45;3.70;;;2.40;;
35540;SDS011;21650;48.840;9.162;2022-08-21T03:21:11;3.40;;;2.60;;
35540;SDS011;21650;48.840;9.162;2022-08-21T03:23:38;2.83;;;2.57;;
35540;SDS011;21650;48.840;9.162;2022-08-21T03:26:05;3.17;;;2.20;;
35540;SDS011;21650;48.840;9.162;2022-08-21T03:28:31;3.53;;;2.27;;
35540;SDS011;21650;48.840;9.162;2022-08-21T03:30:57;2.90;;;2.27;;
35540;SDS011;21650;48.840;9.162;2022-08-21T03:33:23;4.17;;;2.73;;
35540;SDS011;21650;48.840;9.162;2022-08-21T03:35:54;5.70;;;2.53;;
35540;SDS011;21650;48.840;9.162;2022-08-21T03:38:31;3.97;;;2.60;;
35540;SDS011;21650;48.840;9.162;2022-08-21T03:40:59;5.73;;;2.57;;
35540;SDS011;21650;48.840;9.162;2022-08-21T03:43:25;6.40;;;2.80;;
35540;SDS011;21650;48.840;9.162;2022-08-21T03:45:51;5.07;;;3.07;;
35540;SDS011;21650;48.840;9.162;2022-08-21T03:48:17;6.63;;;2.77;;
35540;SDS011;21650;48.840;9.162;2022-08-21T03:50:44;5.23;;;2.43;;
35540;SDS011;21650;48.840;9.162;2022-08-21T03:53:12;3.90;;;2.50;;
35540;SDS011;21650;48.840;9.162;2022-08-21T03:55:38;6.80;;;2.63;;
35540;SDS011;21650;48.840;9.162;2022-08-21T03:58:04;4.00;;;2.67;;
35540;SDS011;21650;48.840;9.162;2022-08-21T04:00:30;5.57;;;3.50;;
35540;SDS011;21650;48.840;9.162;2022-08-21T04:02:56;4.73;;;3.13;;
35540;SDS011;21650;48.840;9.162;2022-08-21T04:05:21;3.47;;;2.57;;
35540;SDS011;21650;48.840;9.162;2022-08-21T04:07:57;4.00;;;2.87;;
35540;SDS011;21650;48.840;9.162;2022-08-21T04:10:23;4.03;;;3.30;;
35540;SDS011;21650;48.840;9.162;2022-08-21T04:12:51;3.73;;;3.27;;
35540;SDS011;21650;48.840;9.162;2022-08-21T04:15:17;5.27;;;3.00;;
35540;SDS011;21650;48.840;9.162;2022-08-21T04:17:43;6.17;;;3.40;;
35540;SDS011;21650;48.840;9.162;2022-08-21T04:20:08;4.80;;;3.03;;
35540;SDS011;21650;48.840;9.162;2022-08-21T04:22:34;4.07;;;3.17;;
35540;SDS011;21650;48.840;9.162;2022-08-21T04:25:00;4.63;;;3.30;;
35540;SDS011;21650;48.840;9.162;2022-08-21T04:27:25;4.10;;;3.30;;
35540;SDS011;21650;48.840;9.162;2022-08-21T04:29:51;8.40;;;3.53;;
35540;SDS011;21650;48.840;9.162;2022-08-21T04:32:23;3.17;;;2.60;;
35540;SDS011;21650;48.840;9.162;2022-08-21T04:34:50;6.30;;;3.00;;
35540;SDS011;21650;48.840;9.162;2022-08-21T04:37:15;6.10;;;3.00;;
35540;SDS011;21650;48.840;9.162;2022-08-21T04:39:41;5.87;;;2.70;;
35540;SDS011;21650;48.840;9.162;2022-08-21T04:42:07;5.43;;;3.20;;
35540;SDS011;21650;48.840;9.162;2022-08-21T04:44:34;6.30;;;3.20;;
35540;SDS011;21650;48.840;9.162;2022-08-21T04:47:00;5.33;;;3.10;;
35540;SDS011;21650;48.840;9.162;2022-08-21T04:49:26;3.03;;;2.73;;
35540;SDS011;21650;48.840;9.162;2022-08-21T04:51:51;4.43;;;2.53;;
35540;SDS011;21650;48.840;9.162;2022-08-21T04:54:19;9.83;;;3.60;;
35540;SDS011;21650;48.840;9.162;2022-08-21T04:56:47;6.07;;;3.07;;
35540;SDS011;21650;48.840;9.162;2022-08-21T04:59:24;5.43;;;3.00;;
35540;SDS011;21650;48.840;9.162;2022-08-21T05:01:52;5.70;;;2.67;;
35540;SDS011;21650;48.840;9.162;2022-08-21T05:04:22;7.47;;;3.00;;
35540;SDS011;21650;48.840;9.162;2022-08-21T05:06:51;4.13;;;3.10;;
35540;SDS011;21650;48.840;9.162;2022-08-21T05:09:19;3.20;;;2.90;;
35540;SDS011;21650;48.840;9.162;2022-08-21T05:11:46;6.27;;;3.47;;
35540;SDS011;21650;48.840;9.162;2022-08-21T05:14:13;3.80;;;3.23;;
35540;SDS011;21650;48.840;9.162;2022-08-21T05:16:39;4.70;;;3.13;;
35540;SDS011;21650;48.840;9.162;2022-08-21T05:19:06;4.53;;;3.13;;
35540;SDS011;21650;48.840;9.162;2022-08-21T05:21:36;7.47;;;3.20;;
35540;SDS011;21650;48.840;9.162;2022-08-21T05:24:05;3.90;;;3.33;;
35540;SDS011;21650;48.840;9.162;2022-08-21T05:26:31;7.17;;;2.80;;
35540;SDS011;21650;48.840;9.162;2022-08-21T05:28:57;4.00;;;2.90;;
35540;SDS011;21650;48.840;9.162;2022-08-21T05:31:23;3.77;;;2.87;;
35540;SDS011;21650;48.840;9.162;2022-08-21T05:33:49;4.20;;;2.83;;
35540;SDS011;21650;48.840;9.162;2022-08-21T05:36:14;3.43;;;2.80;;
35540;SDS011;21650;48.840;9.162;2022-08-21T05:38:41;4.83;;;2.80;;
35540;SDS011;21650;48.840;9.162;2022-08-21T05:41:08;4.43;;;3.13;;
35540;SDS011;21650;48.840;9.162;2022-08-21T05:43:34;7.20;;;3.03;;
35540;SDS011;21650;48.840;9.162;2022-08-21T05:46:01;5.70;;;2.83;;
35540;SDS011;21650;48.840;9.162;2022-08-21T05:48:28;4.63;;;3.03;;
35540;SDS011;21650;48.840;9.162;2022-08-21T05:50:54;5.03;;;2.73;;
35540;SDS011;21650;48.840;9.162;2022-08-21T05:53:20;6.63;;;3.07;;
35540;SDS011;21650;48.840;9.162;2022-08-21T05:55:47;4.70;;;3.27;;
35540;SDS011;21650;48.840;9.162;2022-08-21T05:58:14;5.07;;;3.23;;
35540;SDS011;21650;48.840;9.162;2022-08-21T06:00:42;7.73;;;3.60;;
35540;SDS011;21650;48.840;9.162;2022-08-21T06:03:12;3.27;;;2.87;;
35540;SDS011;21650;48.840;9.162;2022-08-21T06:05:48;5.67;;;3.93;;
35540;SDS011;21650;48.840;9.162;2022-08-21T06:08:15;4.37;;;3.07;;
35540;SDS011;21650;48.840;9.162;2022-08-21T06:10:42;3.60;;;2.93;;
35540;SDS011;21650;48.840;9.162;2022-08-21T06:13:08;6.10;;;3.10;;
35540;SDS011;21650;48.840;9.162;2022-08-21T06:15:34;4.47;;;3.27;;
35540;SDS011;21650;48.840;9.162;2022-08-21T06:17:59;6.50;;;3.57;;
35540;SDS011;21650;48.840;9.162;2022-08-21T06:20:25;4.30;;;3.83;;
35540;SDS011;21650;48.840;9.162;2022-08-21T06:22:51;7.33;;;3.20;;
35540;SDS011;21650;48.840;9.162;2022-08-21T06:25:16;5.10;;;3.27;;
35540;SDS011;21650;48.840;9.162;2022-08-21T06:27:43;4.30;;;3.17;;
35540;SDS011;21650;48.840;9.162;2022-08-21T06:30:09;4.70;;;3.10;;
35540;SDS011;21650;48.840;9.162;2022-08-21T06:32:35;5.03;;;3.70;;
35540;SDS011;21650;48.840;9.162;2022-08-21T06:35:01;4.70;;;3.20;;
35540;SDS011;21650;48.840;9.162;2022-08-21T06:37:27;7.70;;;3.90;;
35540;SDS011;21650;48.840;9.162;2022-08-21T06:39:54;5.80;;;3.27;;
35540;SDS011;21650;48.840;9.162;2022-08-21T06:42:19;6.47;;;3.60;;
35540;SDS011;21650;48.840;9.162;2022-08-21T06:44:45;6.90;;;3.43;;
35540;SDS011;21650;48.840;9.162;2022-08-21T06:47:11;5.50;;;2.97;;
35540;SDS011;21650;48.840;9.162;2022-08-21T06:49:37;6.07;;;3.20;;
35540;SDS011;21650;48.840;9.162;2022-08-21T06:52:02;9.83;;;3.17;;
35540;SDS011;21650;48.840;9.162;2022-08-21T06:54:28;4.73;;;2.93;;
35540;SDS011;21650;48.840;9.162;2022-08-21T06:56:55;4.00;;;2.50;;
35540;SDS011;21650;48.840;9.162;2022-08-21T06:59:21;4.20;;;2.70;;
35540;SDS011;21650;48.840;9.162;2022-08-21T07:01:46;5.50;;;3.17;;
35540;SDS011;21650;48.840;9.162;2022-08-21T07:04:12;5.67;;;2.97;;
35540;SDS011;21650;48.840;9.162;2022-08-21T07:06:38;6.43;;;3.20;;
35540;SDS011;21650;48.840;9.162;2022-08-21T07:09:03;6.40;;;3.40;;
35540;SDS011;21650;48.840;9.162;2022-08-21T07:11:29;5.93;;;2.93;;
35540;SDS011;21650;48.840;9.162;2022-08-21T07:13:55;6.93;;;3.03;;
35540;SDS011;21650;48.840;9.162;2022-08-21T07:16:21;8.30;;;3.13;;
35540;SDS011;21650;48.840;9.162;2022-08-21T07:18:47;8.30;;;3.40;;
35540;SDS011;21650;48.840;9.162;2022-08-21T07:21:13;5.20;;;2.77;;
35540;SDS011;21650;48.840;9.162;2022-08-21T07:23:42;4.87;;;3.23;;
35540;SDS011;21650;48.840;9.162;2022-08-21T07:26:10;5.90;;;3.23;;
35540;SDS011;21650;48.840;9.162;2022-08-21T07:28:37;6.10;;;3.20;;
35540;SDS011;21650;48.840;9.162;2022-08-21T07:31:03;5.23;;;2.90;;
35540;SDS011;21650;48.840;9.162;2022-08-21T07:33:29;5.97;;;3.47;;
35540;SDS011;21650;48.840;9.162;2022-08-21T07:35:56;7.63;;;3.23;;
35540;SDS011;21650;48.840;9.162;2022-08-21T07:38:22;8.63;;;3.80;;
35540;SDS011;21650;48.840;9.162;2022-08-21T07:40:48;6.47;;;3.40;;
35540;SDS011;21650;48.840;9.162;2022-08-21T07:43:15;8.03;;;4.33;;
35540;SDS011;21650;48.840;9.162;2022-08-21T07:45:42;3.90;;;2.67;;
35540;SDS011;21650;48.840;9.162;2022-08-21T07:48:08;8.30;;;3.97;;
35540;SDS011;21650;48.840;9.162;2022-08-21T07:50:34;7.27;;;3.53;;
35540;SDS011;21650;48.840;9.162;2022-08-21T07:53:00;4.80;;;3.00;;
35540;SDS011;21650;48.840;9.162;2022-08-21T07:55:26;8.63;;;4.10;;
35540;SDS011;21650;48.840;9.162;2022-08-21T07:57:51;7.27;;;4.27;;
35540;SDS011;21650;48.840;9.162;2022-08-21T08:00:18;5.60;;;3.23;;
35540;SDS011;21650;48.840;9.162;2022-08-21T08:02:47;8.63;;;3.47;;
35540;SDS011;21650;48.840;9.162;2022-08-21T08:05:15;9.67;;;3.97;;
35540;SDS011;21650;48.840;9.162;2022-08-21T08:07:42;7.03;;;3.70;;
35540;SDS011;21650;48.840;9.162;2022-08-21T08:10:08;6.23;;;3.20;;
35540;SDS011;21650;48.840;9.162;2022-08-21T08:12:38;8.73;;;3.60;;
35540;SDS011;21650;48.840;9.162;2022-08-21T08:15:07;7.97;;;3.87;;
35540;SDS011;21650;48.840;9.162;2022-08-21T08:17:36;6.97;;;3.30;;
35540;SDS011;21650;48.840;9.162;2022-08-21T08:20:04;8.07;;;3.50;;
35540;SDS011;21650;48.840;9.162;2022-08-21T08:22:31;5.97;;;3.53;;
35540;SDS011;21650;48.840;9.162;2022-08-21T08:24:58;9.23;;;3.67;;
35540;SDS011;21650;48.840;9.162;2022-08-21T08:27:25;6.67;;;3.40;;
35540;SDS011;21650;48.840;9.162;2022-08-21T08:29:50;13.13;;;4.10;;
35540;SDS011;21650;48.840;9.162;2022-08-21T08:32:16;9.03;;;4.27;;
35540;SDS011;21650;48.840;9.162;2022-08-21T08:34:42;8.83;;;3.93;;
35540;SDS011;21650;48.840;9.162;2022-08-21T08:37:08;10.00;;;3.70;;
35540;SDS011;21650;48.840;9.162;2022-08-21T08:39:34;5.83;;;3.40;;
35540;SDS011;21650;48.840;9.162;2022-08-21T08:42:07;11.17;;;3.87;;
35540;SDS011;21650;48.840;9.162;2022-08-21T08:44:38;6.80;;;3.80;;
35540;SDS011;21650;48.840;9.162;2022-08-21T08:47:10;6.17;;;3.23;;
35540;SDS011;21650;48.840;9.162;2022-08-21T08:49:39;6.57;;;3.47;;
35540;SDS011;21650;48.840;9.162;2022-08-21T08:54:52;11.37;;;4.60;;
35540;SDS011;21650;48.840;9.162;2022-08-21T08:57:26;10.07;;;3.67;;
35540;SDS011;21650;48.840;9.162;2022-08-21T08:59:53;11.23;;;3.53;;
35540;SDS011;21650;48.840;9.162;2022-08-21T09:02:22;9.40;;;4.00;;
35540;SDS011;21650;48.840;9.162;2022-08-21T09:04:49;8.17;;;3.93;;
35540;SDS011;21650;48.840;9.162;2022-08-21T09:07:20;8.10;;;4.00;;
35540;SDS011;21650;48.840;9.162;2022-08-21T09:10:18;6.90;;;3.93;;
35540;SDS011;21650;48.840;9.162;2022-08-21T09:24:17;5.70;;;3.33;;
35540;SDS011;21650;48.840;9.162;2022-08-21T09:26:57;9.63;;;2.93;;
35540;SDS011;21650;48.840;9.162;2022-08-21T09:29:31;7.50;;;3.17;;
35540;SDS011;21650;48.840;9.162;2022-08-21T09:32:00;3.80;;;2.90;;
35540;SDS011;21650;48.840;9.162;2022-08-21T09:34:28;6.20;;;3.57;;
35540;SDS011;21650;48.840;9.162;2022-08-21T09:36:56;6.33;;;3.30;;
35540;SDS011;21650;48.840;9.162;2022-08-21T09:41:59;6.03;;;2.97;;
35540;SDS011;21650;48.840;9.162;2022-08-21T09:44:28;8.73;;;3.13;;
35540;SDS011;21650;48.840;9.162;2022-08-21T09:46:59;5.60;;;2.88;;
35540;SDS011;21650;48.840;9.162;2022-08-21T09:49:33;3.85;;;2.95;;
35540;SDS011;21650;48.840;9.162;2022-08-21T09:52:01;6.13;;;3.13;;
35540;SDS011;21650;48.840;9.162;2022-08-21T09:54:33;5.97;;;3.22;;
35540;SDS011;21650;48.840;9.162;2022-08-21T09:59:52;6.93;;;3.03;;
35540;SDS011;21650;48.840;9.162;2022-08-21T10:02:28;8.27;;;3.45;;
35540;SDS011;21650;48.840;9.162;2022-08-21T10:04:57;7.63;;;3.50;;
35540;SDS011;21650;48.840;9.162;2022-08-21T10:07:26;5.50;;;2.80;;
35540;SDS011;21650;48.840;9.162;2022-08-21T10:12:40;6.47;;;2.67;;
35540;SDS011;21650;48.840;9.162;2022-08-21T10:15:20;4.60;;;2.63;;
35540;SDS011;21650;48.840;9.162;2022-08-21T10:18:03;5.80;;;2.90;;
35540;SDS011;21650;48.840;9.162;2022-08-21T10:20:44;7.25;;;2.38;;
35540;SDS011;21650;48.840;9.162;2022-08-21T10:29:11;8.07;;;3.28;;
35540;SDS011;21650;48.840;9.162;2022-08-21T10:34:48;3.58;;;2.65;;
35540;SDS011;21650;48.840;9.162;2022-08-21T10:40:15;4.78;;;2.83;;
35540;SDS011;21650;48.840;9.162;2022-08-21T10:45:46;6.22;;;3.10;;
35540;SDS011;21650;48.840;9.162;2022-08-21T10:48:25;7.55;;;2.75;;
35540;SDS011;21650;48.840;9.162;2022-08-21T10:51:02;8.10;;;3.25;;
35540;SDS011;21650;48.840;9.162;2022-08-21T11:01:34;7.00;;;3.20;;
35540;SDS011;21650;48.840;9.162;2022-08-21T11:04:34;6.55;;;3.38;;
35540;SDS011;21650;48.840;9.162;2022-08-21T11:07:04;5.68;;;2.63;;
35540;SDS011;21650;48.840;9.162;2022-08-21T11:09:46;6.47;;;2.88;;
35540;SDS011;21650;48.840;9.162;2022-08-21T11:12:24;5.20;;;3.20;;
35540;SDS011;21650;48.840;9.162;2022-08-21T11:17:35;5.80;;;2.75;;
35540;SDS011;21650;48.840;9.162;2022-08-21T11:20:13;4.75;;;2.92;;
35540;SDS011;21650;48.840;9.162;2022-08-21T11:22:56;4.57;;;2.95;;
35540;SDS011;21650;48.840;9.162;2022-08-21T11:25:35;8.30;;;3.97;;
35540;SDS011;21650;48.840;9.162;2022-08-21T11:36:54;3.78;;;2.50;;
35540;SDS011;21650;48.840;9.162;2022-08-21T11:39:43;4.60;;;2.90;;
35540;SDS011;21650;48.840;9.162;2022-08-21T11:45:01;3.90;;;3.10;;
35540;SDS011;21650;48.840;9.162;2022-08-21T11:50:35;5.28;;;2.88;;
35540;SDS011;21650;48.840;9.162;2022-08-21T11:53:14;7.22;;;3.08;;
35540;SDS011;21650;48.840;9.162;2022-08-21T11:58:52;6.57;;;2.90;;
35540;SDS011;21650;48.840;9.162;2022-08-21T12:01:22;5.25;;;2.22;;
35540;SDS011;21650;48.840;9.162;2022-08-21T12:03:55;5.32;;;2.85;;
35540;SDS011;21650;48.840;9.162;2022-08-21T12:06:30;5.18;;;2.42;;
35540;SDS011;21650;48.840;9.162;2022-08-21T12:09:04;6.82;;;2.80;;
35540;SDS011;21650;48.840;9.162;2022-08-21T12:11:32;9.40;;;2.53;;
35540;SDS011;21650;48.840;9.162;2022-08-21T12:14:16;7.28;;;3.10;;
35540;SDS011;21650;48.840;9.162;2022-08-21T12:16:47;5.03;;;2.95;;
35540;SDS011;21650;48.840;9.162;2022-08-21T12:26:53;5.03;;;2.55;;
35540;SDS011;21650;48.840;9.162;2022-08-21T12:29:31;5.00;;;2.20;;
35540;SDS011;21650;48.840;9.162;2022-08-21T12:34:30;4.75;;;2.83;;
35540;SDS011;21650;48.840;9.162;2022-08-21T12:37:04;5.13;;;2.83;;
35540;SDS011;21650;48.840;9.162;2022-08-21T12:39:39;5.20;;;2.80;;
35540;SDS011;21650;48.840;9.162;2022-08-21T12:42:20;4.20;;;2.40;;
35540;SDS011;21650;48.840;9.162;2022-08-21T12:44:50;3.28;;;2.20;;
35540;SDS011;21650;48.840;9.162;2022-08-21T12:47:31;5.10;;;2.60;;
35540;SDS011;21650;48.840;9.162;2022-08-21T12:50:03;5.95;;;3.28;;
35540;SDS011;21650;48.840;9.162;2022-08-21T12:52:33;4.55;;;2.60;;
35540;SDS011;21650;48.840;9.162;2022-08-21T12:55:02;6.28;;;2.45;;
35540;SDS011;21650;48.840;9.162;2022-08-21T12:57:29;6.15;;;2.67;;
35540;SDS011;21650;48.840;9.162;2022-08-21T12:59:59;5.43;;;2.72;;
35540;SDS011;21650;48.840;9.162;2022-08-21T13:02:32;3.58;;;2.60;;
35540;SDS011;21650;48.840;9.162;2022-08-21T13:05:02;3.30;;;2.55;;
35540;SDS011;21650;48.840;9.162;2022-08-21T13:07:32;5.53;;;2.78;;
35540;SDS011;21650;48.840;9.162;2022-08-21T13:10:04;4.15;;;2.72;;
35540;SDS011;21650;48.840;9.162;2022-08-21T13:12:38;4.25;;;2.47;;
35540;SDS011;21650;48.840;9.162;2022-08-21T13:15:05;4.78;;;2.70;;
35540;SDS011;21650;48.840;9.162;2022-08-21T13:17:34;4.63;;;2.78;;
35540;SDS011;21650;48.840;9.162;2022-08-21T13:22:32;4.25;;;2.40;;
35540;SDS011;21650;48.840;9.162;2022-08-21T13:25:09;4.57;;;2.45;;
35540;SDS011;21650;48.840;9.162;2022-08-21T13:27:40;3.38;;;2.22;;
35540;SDS011;21650;48.840;9.162;2022-08-21T13:30:11;6.90;;;2.70;;
35540;SDS011;21650;48.840;9.162;2022-08-21T13:32:43;6.80;;;2.70;;
35540;SDS011;21650;48.840;9.162;2022-08-21T13:35:14;4.20;;;2.67;;
35540;SDS011;21650;48.840;9.162;2022-08-21T13:37:43;7.05;;;2.55;;
35540;SDS011;21650;48.840;9.162;2022-08-21T13:43:12;3.88;;;2.33;;
35540;SDS011;21650;48.840;9.162;2022-08-21T13:45:47;7.82;;;3.58;;
35540;SDS011;21650;48.840;9.162;2022-08-21T13:48:17;4.47;;;2.28;;
35540;SDS011;21650;48.840;9.162;2022-08-21T13:50:43;2.80;;;2.40;;
35540;SDS011;21650;48.840;9.162;2022-08-21T13:54:12;3.95;;;2.17;;
35540;SDS011;21650;48.840;9.162;2022-08-21T13:56:09;4.60;;;2.45;;
35540;SDS011;21650;48.840;9.162;2022-08-21T13:58:46;4.82;;;2.60;;
35540;SDS011;21650;48.840;9.162;2022-08-21T14:01:23;4.50;;;2.42;;
35540;SDS011;21650;48.840;9.162;2022-08-21T14:04:03;5.38;;;2.55;;
35540;SDS011;21650;48.840;9.162;2022-08-21T14:06:36;6.03;;;3.30;;
35540;SDS011;21650;48.840;9.162;2022-08-21T14:09:10;4.20;;;2.45;;
35540;SDS011;21650;48.840;9.162;2022-08-21T14:11:49;5.50;;;2.45;;
35540;SDS011;21650;48.840;9.162;2022-08-21T14:16:52;6.22;;;2.28;;
35540;SDS011;21650;48.840;9.162;2022-08-21T14:19:22;3.75;;;2.33;;
35540;SDS011;21650;48.840;9.162;2022-08-21T14:21:47;4.25;;;2.47;;
35540;SDS011;21650;48.840;9.162;2022-08-21T14:29:16;5.00;;;2.33;;
35540;SDS011;21650;48.840;9.162;2022-08-21T14:31:47;3.45;;;2.22;;
35540;SDS011;21650;48.840;9.162;2022-08-21T14:34:18;4.95;;;2.17;;
35540;SDS011;21650;48.840;9.162;2022-08-21T14:36:44;4.97;;;2.38;;
35540;SDS011;21650;48.840;9.162;2022-08-21T14:39:10;4.68;;;2.50;;
35540;SDS011;21650;48.840;9.162;2022-08-21T14:41:36;5.85;;;2.85;;
35540;SDS011;21650;48.840;9.162;2022-08-21T14:44:02;6.13;;;2.50;;
35540;SDS011;21650;48.840;9.162;2022-08-21T14:46:30;2.67;;;2.38;;
35540;SDS011;21650;48.840;9.162;2022-08-21T14:48:57;4.60;;;2.00;;
35540;SDS011;21650;48.840;9.162;2022-08-21T14:51:23;3.70;;;2.35;;
35540;SDS011;21650;48.840;9.162;2022-08-21T14:53:49;7.07;;;2.58;;
35540;SDS011;21650;48.840;9.162;2022-08-21T14:56:15;3.70;;;2.15;;
35540;SDS011;21650;48.840;9.162;2022-08-21T14:58:42;9.77;;;4.47;;
35540;SDS011;21650;48.840;9.162;2022-08-21T15:01:10;3.55;;;2.30;;
35540;SDS011;21650;48.840;9.162;2022-08-21T15:03:38;4.55;;;2.47;;
35540;SDS011;21650;48.840;9.162;2022-08-21T15:06:05;4.00;;;2.40;;
35540;SDS011;21650;48.840;9.162;2022-08-21T15:08:31;4.85;;;2.05;;
35540;SDS011;21650;48.840;9.162;2022-08-21T15:10:57;3.42;;;2.00;;
35540;SDS011;21650;48.840;9.162;2022-08-21T15:13:24;5.07;;;2.30;;
35540;SDS011;21650;48.840;9.162;2022-08-21T15:15:50;3.90;;;2.13;;
35540;SDS011;21650;48.840;9.162;2022-08-21T15:18:22;6.53;;;2.78;;
35540;SDS011;21650;48.840;9.162;2022-08-21T15:20:49;4.05;;;2.40;;
35540;SDS011;21650;48.840;9.162;2022-08-21T15:23:15;4.93;;;2.13;;
35540;SDS011;21650;48.840;9.162;2022-08-21T15:25:44;3.10;;;2.28;;
35540;SDS011;21650;48.840;9.162;2022-08-21T15:28:12;4.80;;;2.17;;
35540;SDS011;21650;48.840;9.162;2022-08-21T15:30:40;4.70;;;2.20;;
35540;SDS011;21650;48.840;9.162;2022-08-21T15:33:06;4.35;;;2.70;;
35540;SDS011;21650;48.840;9.162;2022-08-21T15:35:32;7.57;;;2.58;;
35540;SDS011;21650;48.840;9.162;2022-08-21T15:37:58;3.30;;;2.05;;
35540;SDS011;21650;48.840;9.162;2022-08-21T15:40:24;6.28;;;2.58;;
35540;SDS011;21650;48.840;9.162;2022-08-21T15:42:50;4.50;;;2.33;;
35540;SDS011;21650;48.840;9.162;2022-08-21T15:45:21;3.85;;;2.65;;
35540;SDS011;21650;48.840;9.162;2022-08-21T15:47:46;4.95;;;2.13;;
35540;SDS011;21650;48.840;9.162;2022-08-21T15:50:14;4.22;;;2.40;;
35540;SDS011;21650;48.840;9.162;2022-08-21T15:52:40;3.03;;;2.38;;
35540;SDS011;21650;48.840;9.162;2022-08-21T15:55:07;5.82;;;2.70;;
35540;SDS011;21650;48.840;9.162;2022-08-21T15:57:34;6.25;;;2.20;;
35540;SDS011;21650;48.840;9.162;2022-08-21T16:00:06;4.72;;;3.28;;
35540;SDS011;21650;48.840;9.162;2022-08-21T16:02:44;5.82;;;3.17;;
35540;SDS011;21650;48.840;9.162;2022-08-21T16:05:13;4.68;;;2.50;;
35540;SDS011;21650;48.840;9.162;2022-08-21T16:07:42;4.43;;;2.38;;
35540;SDS011;21650;48.840;9.162;2022-08-21T16:10:09;4.15;;;2.17;;
35540;SDS011;21650;48.840;9.162;2022-08-21T16:12:36;4.80;;;2.38;;
35540;SDS011;21650;48.840;9.162;2022-08-21T16:15:07;4.45;;;2.35;;
35540;SDS011;21650;48.840;9.162;2022-08-21T16:17:35;3.88;;;1.95;;
35540;SDS011;21650;48.840;9.162;2022-08-21T16:20:04;4.15;;;2.25;;
35540;SDS011;21650;48.840;9.162;2022-08-21T16:22:33;2.75;;;2.10;;
35540;SDS011;21650;48.840;9.162;2022-08-21T16:24:58;2.75;;;1.98;;
35540;SDS011;21650;48.840;9.162;2022-08-21T16:27:24;4.60;;;2.30;;
35540;SDS011;21650;48.840;9.162;2022-08-21T16:29:50;4.60;;;2.67;;